sensor_id;sensor_type;location;lat;lon;timestamp;pressure;altitude;pressure_sealevel;temperature;humidity
64821;BME280;51256;55.654;37.264;2022-10-23T00:01:33;99208.34;;;5.84;74.78
64821;BME280;51256;55.654;37.264;2022-10-23T00:03:59;99221.41;;;5.97;74.88
64821;BME280;51256;55.654;37.264;2022-10-23T00:06:27;99217.56;;;5.90;74.91
64821;BME280;51256;55.654;37.264;2022-10-23T00:08:53;99204.88;;;5.84;74.69
64821;BME280;51256;55.654;37.264;2022-10-23T00:11:21;99209.53;;;5.92;74.91
64821;BME280;51256;55.654;37.264;2022-10-23T00:13:48;99201.50;;;5.93;75.26
64821;BME280;51256;55.654;37.264;2022-10-23T00:16:13;99206.91;;;5.92;75.28
64821;BME280;51256;55.654;37.264;2022-10-23T00:18:39;99199.00;;;5.92;74.84
64821;BME280;51256;55.654;37.264;2022-10-23T00:21:06;99177.19;;;5.78;75.11
64821;BME280;51256;55.654;37.264;2022-10-23T00:23:33;99194.94;;;5.88;75.19
64821;BME280;51256;55.654;37.264;2022-10-23T00:25:58;99186.44;;;5.84;74.61
64821;BME280;51256;55.654;37.264;2022-10-23T00:28:25;99188.81;;;5.87;75.04
64821;BME280;51256;55.654;37.264;2022-10-23T00:30:50;99170.38;;;5.76;74.46
64821;BME280;51256;55.654;37.264;2022-10-23T00:33:16;99174.00;;;5.86;74.79
64821;BME280;51256;55.654;37.264;2022-10-23T00:35:42;99163.53;;;5.84;74.30
64821;BME280;51256;55.654;37.264;2022-10-23T00:38:08;99167.88;;;5.85;74.81
64821;BME280;51256;55.654;37.264;2022-10-23T00:40:35;99171.44;;;5.84;74.72
64821;BME280;51256;55.654;37.264;2022-10-23T00:43:01;99163.94;;;5.80;74.55
64821;BME280;51256;55.654;37.264;2022-10-23T00:45:28;99165.84;;;5.78;75.22
64821;BME280;51256;55.654;37.264;2022-10-23T00:48:01;99153.88;;;5.74;74.50
64821;BME280;51256;55.654;37.264;2022-10-23T00:50:30;99156.75;;;5.71;74.77
64821;BME280;51256;55.654;37.264;2022-10-23T00:52:58;99145.13;;;5.62;74.84
64821;BME280;51256;55.654;37.264;2022-10-23T00:55:25;99148.84;;;5.59;75.08
64821;BME280;51256;55.654;37.264;2022-10-23T00:57:51;99137.84;;;5.54;75.27
64821;BME280;51256;55.654;37.264;2022-10-23T01:00:23;99138.19;;;5.49;74.75
64821;BME280;51256;55.654;37.264;2022-10-23T01:02:50;99127.56;;;5.40;74.89
64821;BME280;51256;55.654;37.264;2022-10-23T01:05:16;99138.19;;;5.38;74.97
64821;BME280;51256;55.654;37.264;2022-10-23T01:14:05;99126.44;;;5.08;76.01
64821;BME280;51256;55.654;37.264;2022-10-23T01:18:39;99116.25;;;4.81;76.41
64821;BME280;51256;55.654;37.264;2022-10-23T01:21:12;99099.22;;;4.62;75.94
64821;BME280;51256;55.654;37.264;2022-10-23T01:27:08;99109.31;;;4.55;77.02
64821;BME280;51256;55.654;37.264;2022-10-23T01:32:18;99106.03;;;4.41;76.56
64821;BME280;51256;55.654;37.264;2022-10-23T01:37:32;99106.97;;;4.28;77.05
64821;BME280;51256;55.654;37.264;2022-10-23T01:40:02;99110.75;;;4.24;77.15
64821;BME280;51256;55.654;37.264;2022-10-23T01:42:32;99112.88;;;4.19;77.12
64821;BME280;51256;55.654;37.264;2022-10-23T01:45:03;99113.22;;;4.14;77.10
64821;BME280;51256;55.654;37.264;2022-10-23T01:47:31;99108.19;;;4.11;77.08
64821;BME280;51256;55.654;37.264;2022-10-23T01:49:58;99108.19;;;4.11;77.09
64821;BME280;51256;55.654;37.264;2022-10-23T01:52:25;99104.97;;;4.08;77.53
64821;BME280;51256;55.654;37.264;2022-10-23T01:54:52;99110.44;;;4.04;77.43
64821;BME280;51256;55.654;37.264;2022-10-23T01:57:21;99106.47;;;3.99;77.48
64821;BME280;51256;55.654;37.264;2022-10-23T01:59:53;99103.00;;;3.98;77.29
64821;BME280;51256;55.654;37.264;2022-10-23T02:02:21;99105.50;;;4.00;77.86
64821;BME280;51256;55.654;37.264;2022-10-23T02:05:00;99096.78;;;3.99;77.55
64821;BME280;51256;55.654;37.264;2022-10-23T02:07:28;99087.19;;;3.87;77.77
64821;BME280;51256;55.654;37.264;2022-10-23T02:09:54;99095.78;;;3.89;77.51
64821;BME280;51256;55.654;37.264;2022-10-23T02:15:02;99085.31;;;3.76;78.13
64821;BME280;51256;55.654;37.264;2022-10-23T02:20:36;99097.16;;;3.82;78.17
64821;BME280;51256;55.654;37.264;2022-10-23T02:25:55;99090.78;;;3.73;78.20
64821;BME280;51256;55.654;37.264;2022-10-23T02:28:26;99078.19;;;3.65;78.35
64821;BME280;51256;55.654;37.264;2022-10-23T02:30:57;99078.19;;;3.65;78.48
64821;BME280;51256;55.654;37.264;2022-10-23T02:33:25;99074.13;;;3.61;78.32
64821;BME280;51256;55.654;37.264;2022-10-23T02:35:51;99071.50;;;3.61;78.06
64821;BME280;51256;55.654;37.264;2022-10-23T02:38:49;99074.63;;;3.66;78.23
64821;BME280;51256;55.654;37.264;2022-10-23T02:41:36;99073.38;;;3.59;78.46
64821;BME280;51256;55.654;37.264;2022-10-23T02:46:49;99072.25;;;3.50;78.44
64821;BME280;51256;55.654;37.264;2022-10-23T02:57:34;99075.66;;;3.39;78.65
64821;BME280;51256;55.654;37.264;2022-10-23T03:00:12;99057.22;;;3.28;78.75
64821;BME280;51256;55.654;37.264;2022-10-23T03:05:08;99061.59;;;3.28;78.73
64821;BME280;51256;55.654;37.264;2022-10-23T03:07:34;99065.25;;;3.38;78.64
64821;BME280;51256;55.654;37.264;2022-10-23T03:10:00;99063.41;;;3.27;79.02
64821;BME280;51256;55.654;37.264;2022-10-23T03:12:26;99051.41;;;3.23;78.61
64821;BME280;51256;55.654;37.264;2022-10-23T03:14:51;99056.06;;;3.19;78.70
64821;BME280;51256;55.654;37.264;2022-10-23T03:17:17;99046.81;;;3.14;78.81
64821;BME280;51256;55.654;37.264;2022-10-23T03:19:42;99041.47;;;3.15;78.84
64821;BME280;51256;55.654;37.264;2022-10-23T03:22:08;99040.75;;;3.13;79.01
64821;BME280;51256;55.654;37.264;2022-10-23T03:24:33;99038.63;;;3.05;78.84
64821;BME280;51256;55.654;37.264;2022-10-23T03:26:58;99039.38;;;3.07;79.24
64821;BME280;51256;55.654;37.264;2022-10-23T03:29:24;99036.13;;;3.04;79.07
64821;BME280;51256;55.654;37.264;2022-10-23T03:31:49;99038.03;;;3.02;79.04
64821;BME280;51256;55.654;37.264;2022-10-23T03:34:15;99035.50;;;3.00;79.01
64821;BME280;51256;55.654;37.264;2022-10-23T03:36:40;99023.38;;;2.99;79.07
64821;BME280;51256;55.654;37.264;2022-10-23T03:39:06;99024.50;;;2.95;79.08
64821;BME280;51256;55.654;37.264;2022-10-23T03:41:31;99027.22;;;2.94;79.21
64821;BME280;51256;55.654;37.264;2022-10-23T03:43:57;99019.47;;;2.92;79.39
64821;BME280;51256;55.654;37.264;2022-10-23T03:46:23;99022.41;;;2.87;79.12
64821;BME280;51256;55.654;37.264;2022-10-23T03:48:48;99009.94;;;2.78;79.11
64821;BME280;51256;55.654;37.264;2022-10-23T03:51:14;99016.03;;;2.79;79.62
64821;BME280;51256;55.654;37.264;2022-10-23T03:53:39;99016.13;;;2.77;79.66
64821;BME280;51256;55.654;37.264;2022-10-23T03:56:05;99017.19;;;2.74;79.35
64821;BME280;51256;55.654;37.264;2022-10-23T03:58:30;99008.06;;;2.67;79.55
64821;BME280;51256;55.654;37.264;2022-10-23T04:00:56;99009.22;;;2.63;79.88
64821;BME280;51256;55.654;37.264;2022-10-23T04:03:22;99008.28;;;2.64;79.63
64821;BME280;51256;55.654;37.264;2022-10-23T04:05:47;99005.44;;;2.67;79.56
64821;BME280;51256;55.654;37.264;2022-10-23T04:08:13;99011.44;;;2.69;79.99
64821;BME280;51256;55.654;37.264;2022-10-23T04:10:39;99010.16;;;2.75;79.77
64821;BME280;51256;55.654;37.264;2022-10-23T04:13:04;98992.84;;;2.72;79.76
64821;BME280;51256;55.654;37.264;2022-10-23T04:15:29;99005.84;;;2.87;79.59
64821;BME280;51256;55.654;37.264;2022-10-23T04:17:55;98998.72;;;2.89;79.50
64821;BME280;51256;55.654;37.264;2022-10-23T04:20:20;98985.19;;;2.82;79.58
64821;BME280;51256;55.654;37.264;2022-10-23T04:22:46;98990.94;;;2.87;79.58
64821;BME280;51256;55.654;37.264;2022-10-23T04:25:12;98990.31;;;2.84;79.52
64821;BME280;51256;55.654;37.264;2022-10-23T04:27:37;98986.13;;;2.81;79.76
64821;BME280;51256;55.654;37.264;2022-10-23T04:30:03;98989.63;;;2.82;79.42
64821;BME280;51256;55.654;37.264;2022-10-23T04:32:28;98999.34;;;2.92;79.78
64821;BME280;51256;55.654;37.264;2022-10-23T04:34:54;98998.72;;;3.02;79.60
64821;BME280;51256;55.654;37.264;2022-10-23T04:37:19;98991.13;;;3.10;79.13
64821;BME280;51256;55.654;37.264;2022-10-23T04:39:45;98983.25;;;3.10;79.16
64821;BME280;51256;55.654;37.264;2022-10-23T04:42:10;98997.63;;;3.17;79.16
64821;BME280;51256;55.654;37.264;2022-10-23T04:44:36;98985.75;;;3.12;78.98
64821;BME280;51256;55.654;37.264;2022-10-23T04:47:01;98993.84;;;3.08;79.16
64821;BME280;51256;55.654;37.264;2022-10-23T04:49:27;98988.63;;;3.08;78.97
64821;BME280;51256;55.654;37.264;2022-10-23T04:51:52;98997.09;;;3.12;79.07
64821;BME280;51256;55.654;37.264;2022-10-23T04:54:18;99003.59;;;3.19;79.10
64821;BME280;51256;55.654;37.264;2022-10-23T04:56:43;98992.00;;;3.35;78.88
64821;BME280;51256;55.654;37.264;2022-10-23T04:59:08;98999.28;;;3.55;78.67
64821;BME280;51256;55.654;37.264;2022-10-23T05:01:34;98996.16;;;3.75;78.28
64821;BME280;51256;55.654;37.264;2022-10-23T05:04:00;98997.16;;;3.85;77.59
64821;BME280;51256;55.654;37.264;2022-10-23T05:06:25;98988.59;;;3.94;77.69
64821;BME280;51256;55.654;37.264;2022-10-23T05:08:51;98994.47;;;3.98;77.56
64821;BME280;51256;55.654;37.264;2022-10-23T05:11:16;98992.94;;;4.06;77.69
64821;BME280;51256;55.654;37.264;2022-10-23T05:13:42;98991.28;;;4.17;77.43
64821;BME280;51256;55.654;37.264;2022-10-23T05:16:08;98995.38;;;4.21;77.11
64821;BME280;51256;55.654;37.264;2022-10-23T05:18:38;98988.00;;;4.26;76.97
64821;BME280;51256;55.654;37.264;2022-10-23T05:21:12;98976.63;;;4.26;76.39
64821;BME280;51256;55.654;37.264;2022-10-23T05:23:40;98988.47;;;4.31;76.64
64821;BME280;51256;55.654;37.264;2022-10-23T05:26:07;98989.69;;;4.38;76.68
64821;BME280;51256;55.654;37.264;2022-10-23T05:28:32;98980.41;;;4.46;76.76
64821;BME280;51256;55.654;37.264;2022-10-23T05:30:59;98978.00;;;4.54;76.00
64821;BME280;51256;55.654;37.264;2022-10-23T05:33:27;98982.78;;;4.60;76.26
64821;BME280;51256;55.654;37.264;2022-10-23T05:35:54;98982.31;;;4.66;76.21
64821;BME280;51256;55.654;37.264;2022-10-23T05:38:19;98972.63;;;4.67;76.13
64821;BME280;51256;55.654;37.264;2022-10-23T05:40:45;98975.63;;;4.74;75.48
64821;BME280;51256;55.654;37.264;2022-10-23T05:43:11;98959.25;;;4.70;76.11
64821;BME280;51256;55.654;37.264;2022-10-23T05:45:36;98959.00;;;4.73;75.69
64821;BME280;51256;55.654;37.264;2022-10-23T05:48:01;98971.59;;;4.81;75.38
64821;BME280;51256;55.654;37.264;2022-10-23T05:50:27;98971.22;;;4.85;75.74
64821;BME280;51256;55.654;37.264;2022-10-23T05:52:52;98957.81;;;4.89;75.72
64821;BME280;51256;55.654;37.264;2022-10-23T05:55:18;98963.56;;;4.94;75.53
64821;BME280;51256;55.654;37.264;2022-10-23T05:57:43;98967.50;;;4.99;75.44
64821;BME280;51256;55.654;37.264;2022-10-23T06:00:09;98961.41;;;4.99;74.97
64821;BME280;51256;55.654;37.264;2022-10-23T06:02:35;98963.09;;;5.00;75.16
64821;BME280;51256;55.654;37.264;2022-10-23T06:05:01;98946.56;;;4.98;75.10
64821;BME280;51256;55.654;37.264;2022-10-23T06:07:27;98955.41;;;5.08;74.99
64821;BME280;51256;55.654;37.264;2022-10-23T06:09:53;98954.72;;;5.06;75.03
64821;BME280;51256;55.654;37.264;2022-10-23T06:12:21;98959.22;;;5.15;74.81
64821;BME280;51256;55.654;37.264;2022-10-23T06:14:47;98962.69;;;5.27;74.26
64821;BME280;51256;55.654;37.264;2022-10-23T06:17:13;98956.94;;;5.33;74.40
64821;BME280;51256;55.654;37.264;2022-10-23T06:19:39;98963.03;;;5.34;74.35
64821;BME280;51256;55.654;37.264;2022-10-23T06:22:05;98951.78;;;5.32;73.80
64821;BME280;51256;55.654;37.264;2022-10-23T06:24:30;98958.84;;;5.31;73.97
64821;BME280;51256;55.654;37.264;2022-10-23T06:26:56;98947.22;;;5.34;73.76
64821;BME280;51256;55.654;37.264;2022-10-23T06:29:21;98938.72;;;5.42;73.74
64821;BME280;51256;55.654;37.264;2022-10-23T06:31:47;98942.25;;;5.52;73.92
64821;BME280;51256;55.654;37.264;2022-10-23T06:34:13;98942.25;;;5.52;73.96
64821;BME280;51256;55.654;37.264;2022-10-23T06:36:39;98933.53;;;5.51;74.10
64821;BME280;51256;55.654;37.264;2022-10-23T06:39:04;98932.22;;;5.57;74.10
64821;BME280;51256;55.654;37.264;2022-10-23T06:41:30;98926.09;;;5.57;73.85
64821;BME280;51256;55.654;37.264;2022-10-23T06:43:56;98924.06;;;5.60;73.90
64821;BME280;51256;55.654;37.264;2022-10-23T06:46:21;98920.69;;;5.58;73.54
64821;BME280;51256;55.654;37.264;2022-10-23T06:48:47;98917.69;;;5.63;73.61
64821;BME280;51256;55.654;37.264;2022-10-23T06:51:14;98908.03;;;5.63;73.65
64821;BME280;51256;55.654;37.264;2022-10-23T06:53:42;98912.16;;;5.77;73.61
64821;BME280;51256;55.654;37.264;2022-10-23T06:56:09;98918.91;;;5.91;73.80
64821;BME280;51256;55.654;37.264;2022-10-23T06:58:37;98904.16;;;6.00;72.74
64821;BME280;51256;55.654;37.264;2022-10-23T07:01:05;98905.69;;;6.03;72.98
64821;BME280;51256;55.654;37.264;2022-10-23T07:03:31;98902.78;;;6.06;72.85
64821;BME280;51256;55.654;37.264;2022-10-23T07:06:01;98900.59;;;6.11;72.71
64821;BME280;51256;55.654;37.264;2022-10-23T07:08:27;98896.03;;;6.13;72.87
64821;BME280;51256;55.654;37.264;2022-10-23T07:10:53;98889.16;;;6.22;72.54
64821;BME280;51256;55.654;37.264;2022-10-23T07:13:19;98883.41;;;6.38;72.51
64821;BME280;51256;55.654;37.264;2022-10-23T07:15:44;98882.16;;;6.42;71.90
64821;BME280;51256;55.654;37.264;2022-10-23T07:18:10;98890.41;;;6.48;72.02
64821;BME280;51256;55.654;37.264;2022-10-23T07:20:40;98890.72;;;6.55;71.75
64821;BME280;51256;55.654;37.264;2022-10-23T07:23:06;98879.84;;;6.48;71.95
64821;BME280;51256;55.654;37.264;2022-10-23T07:25:32;98880.81;;;6.47;71.98
64821;BME280;51256;55.654;37.264;2022-10-23T07:27:57;98892.19;;;6.48;72.06
64821;BME280;51256;55.654;37.264;2022-10-23T07:30:23;98874.84;;;6.45;72.20
64821;BME280;51256;55.654;37.264;2022-10-23T07:32:49;98882.22;;;6.52;71.72
64821;BME280;51256;55.654;37.264;2022-10-23T07:35:15;98878.03;;;6.49;72.27
64821;BME280;51256;55.654;37.264;2022-10-23T07:37:40;98871.09;;;6.48;72.16
64821;BME280;51256;55.654;37.264;2022-10-23T07:40:07;98877.91;;;6.51;71.80
64821;BME280;51256;55.654;37.264;2022-10-23T07:42:32;98874.59;;;6.48;72.17
64821;BME280;51256;55.654;37.264;2022-10-23T07:44:58;98870.38;;;6.46;71.50
64821;BME280;51256;55.654;37.264;2022-10-23T07:47:23;98873.59;;;6.49;71.94
64821;BME280;51256;55.654;37.264;2022-10-23T07:49:49;98864.69;;;6.41;71.59
64821;BME280;51256;55.654;37.264;2022-10-23T07:52:15;98876.91;;;6.42;71.84
64821;BME280;51256;55.654;37.264;2022-10-23T07:54:40;98871.75;;;6.40;72.26
64821;BME280;51256;55.654;37.264;2022-10-23T07:57:05;98873.97;;;6.35;71.91
64821;BME280;51256;55.654;37.264;2022-10-23T07:59:32;98868.13;;;6.31;71.97
64821;BME280;51256;55.654;37.264;2022-10-23T08:01:58;98869.94;;;6.31;71.75
64821;BME280;51256;55.654;37.264;2022-10-23T08:04:23;98872.00;;;6.27;72.31
64821;BME280;51256;55.654;37.264;2022-10-23T08:06:49;98866.72;;;6.27;72.40
64821;BME280;51256;55.654;37.264;2022-10-23T08:09:15;98868.50;;;6.27;72.48
64821;BME280;51256;55.654;37.264;2022-10-23T08:11:40;98851.00;;;6.26;72.09
64821;BME280;51256;55.654;37.264;2022-10-23T08:14:06;98870.38;;;6.46;71.92
64821;BME280;51256;55.654;37.264;2022-10-23T08:16:35;98870.38;;;6.46;71.76
64821;BME280;51256;55.654;37.264;2022-10-23T08:19:01;98862.47;;;6.46;72.29
64821;BME280;51256;55.654;37.264;2022-10-23T08:21:27;98862.22;;;6.49;72.21
64821;BME280;51256;55.654;37.264;2022-10-23T08:23:57;98856.41;;;6.55;72.43
64821;BME280;51256;55.654;37.264;2022-10-23T08:26:23;98859.88;;;6.56;71.97
64821;BME280;51256;55.654;37.264;2022-10-23T08:28:50;98864.88;;;6.49;72.11
64821;BME280;51256;55.654;37.264;2022-10-23T08:31:17;98865.81;;;6.48;72.54
64821;BME280;51256;55.654;37.264;2022-10-23T08:33:43;98866.78;;;6.47;72.78
64821;BME280;51256;55.654;37.264;2022-10-23T08:36:25;98862.38;;;6.47;72.46
64821;BME280;51256;55.654;37.264;2022-10-23T08:38:53;98859.97;;;6.44;72.58
64821;BME280;51256;55.654;37.264;2022-10-23T08:41:31;98855.28;;;6.48;72.75
64821;BME280;51256;55.654;37.264;2022-10-23T08:44:23;98855.03;;;6.51;72.62
64821;BME280;51256;55.654;37.264;2022-10-23T08:46:54;98850.75;;;6.60;72.49
64821;BME280;51256;55.654;37.264;2022-10-23T08:49:32;98857.47;;;6.74;72.31
64821;BME280;51256;55.654;37.264;2022-10-23T08:52:02;98835.81;;;6.80;72.12
64821;BME280;51256;55.654;37.264;2022-10-23T08:55:37;98843.19;;;7.06;71.99
64821;BME280;51256;55.654;37.264;2022-10-23T08:58:26;98838.91;;;7.14;71.69
64821;BME280;51256;55.654;37.264;2022-10-23T09:00:49;98831.84;;;7.15;72.05
64821;BME280;51256;55.654;37.264;2022-10-23T09:03:16;98829.22;;;7.25;71.79
64821;BME280;51256;55.654;37.264;2022-10-23T09:19:22;98816.97;;;7.14;72.04
64821;BME280;51256;55.654;37.264;2022-10-23T09:21:50;98819.47;;;7.16;72.08
64821;BME280;51256;55.654;37.264;2022-10-23T09:24:18;98807.66;;;7.20;71.90
64821;BME280;51256;55.654;37.264;2022-10-23T09:26:46;98805.28;;;7.17;72.10
64821;BME280;51256;55.654;37.264;2022-10-23T09:29:22;98797.94;;;7.20;71.98
64821;BME280;51256;55.654;37.264;2022-10-23T09:31:55;98802.50;;;7.28;72.04
64821;BME280;51256;55.654;37.264;2022-10-23T09:34:23;98801.97;;;7.24;71.86
64821;BME280;51256;55.654;37.264;2022-10-23T09:36:55;98788.75;;;7.24;72.00
64821;BME280;51256;55.654;37.264;2022-10-23T09:39:28;98794.75;;;7.26;71.67
64821;BME280;51256;55.654;37.264;2022-10-23T09:41:54;98782.66;;;7.14;71.81
64821;BME280;51256;55.654;37.264;2022-10-23T09:44:28;98801.28;;;7.12;72.45
64821;BME280;51256;55.654;37.264;2022-10-23T09:47:09;98795.28;;;7.10;72.52
64821;BME280;51256;55.654;37.264;2022-10-23T09:49:39;98792.63;;;7.01;72.42
64821;BME280;51256;55.654;37.264;2022-10-23T09:54:42;98797.34;;;6.87;72.82
64821;BME280;51256;55.654;37.264;2022-10-23T09:59:53;98788.47;;;6.88;73.45
64821;BME280;51256;55.654;37.264;2022-10-23T10:02:27;98800.97;;;6.86;73.47
64821;BME280;51256;55.654;37.264;2022-10-23T10:04:53;98783.31;;;6.77;73.22
64821;BME280;51256;55.654;37.264;2022-10-23T10:09:45;98779.41;;;6.81;73.54
64821;BME280;51256;55.654;37.264;2022-10-23T10:12:24;98769.72;;;6.81;73.90
64821;BME280;51256;55.654;37.264;2022-10-23T10:15:02;98769.00;;;6.79;73.49
64821;BME280;51256;55.654;37.264;2022-10-23T10:17:36;98773.06;;;6.84;73.86
64821;BME280;51256;55.654;37.264;2022-10-23T10:21:01;98775.00;;;6.81;73.81
64821;BME280;51256;55.654;37.264;2022-10-23T10:28:52;98763.31;;;6.84;74.25
64821;BME280;51256;55.654;37.264;2022-10-23T10:34:45;98766.25;;;6.71;74.12
64821;BME280;51256;55.654;37.264;2022-10-23T10:37:40;98757.19;;;6.64;74.45
64821;BME280;51256;55.654;37.264;2022-10-23T10:48:19;98747.88;;;6.50;74.73
64821;BME280;51256;55.654;37.264;2022-10-23T10:51:01;98733.72;;;6.51;75.01
64821;BME280;51256;55.654;37.264;2022-10-23T10:56:14;98737.59;;;6.57;75.09
64821;BME280;51256;55.654;37.264;2022-10-23T11:01:22;98726.25;;;6.66;74.95
64821;BME280;51256;55.654;37.264;2022-10-23T11:03:53;98719.88;;;6.69;75.18
64821;BME280;51256;55.654;37.264;2022-10-23T11:06:24;98713.06;;;6.66;74.90
64821;BME280;51256;55.654;37.264;2022-10-23T11:08:51;98704.59;;;6.62;75.24
64821;BME280;51256;55.654;37.264;2022-10-23T11:11:21;98705.69;;;6.60;75.54
64821;BME280;51256;55.654;37.264;2022-10-23T11:13:50;98706.53;;;6.60;75.15
64821;BME280;51256;55.654;37.264;2022-10-23T11:35:30;98693.34;;;6.80;76.05
64821;BME280;51256;55.654;37.264;2022-10-23T11:40:43;98669.03;;;6.67;75.51
64821;BME280;51256;55.654;37.264;2022-10-23T11:43:10;98677.09;;;6.65;75.64
64821;BME280;51256;55.654;37.264;2022-10-23T11:45:38;98672.94;;;6.62;75.73
64821;BME280;51256;55.654;37.264;2022-10-23T11:53:37;98674.47;;;6.65;75.76
64821;BME280;51256;55.654;37.264;2022-10-23T11:58:45;98662.91;;;6.76;76.18
64821;BME280;51256;55.654;37.264;2022-10-23T12:01:29;98661.28;;;6.75;75.74
64821;BME280;51256;55.654;37.264;2022-10-23T12:06:39;98658.91;;;6.62;76.17
64821;BME280;51256;55.654;37.264;2022-10-23T12:09:20;98657.94;;;6.63;76.34
64821;BME280;51256;55.654;37.264;2022-10-23T12:11:48;98654.59;;;6.61;76.55
64821;BME280;51256;55.654;37.264;2022-10-23T12:14:33;98647.78;;;6.58;75.95
64821;BME280;51256;55.654;37.264;2022-10-23T12:17:00;98640.88;;;6.47;76.22
64821;BME280;51256;55.654;37.264;2022-10-23T12:19:38;98641.69;;;6.48;76.63
64821;BME280;51256;55.654;37.264;2022-10-23T12:22:11;98649.19;;;6.53;76.88
64821;BME280;51256;55.654;37.264;2022-10-23T12:24:54;98644.47;;;6.56;76.71
64821;BME280;51256;55.654;37.264;2022-10-23T12:27:29;98648.91;;;6.56;77.19
64821;BME280;51256;55.654;37.264;2022-10-23T12:30:13;98644.47;;;6.56;77.35
64821;BME280;51256;55.654;37.264;2022-10-23T12:32:54;98631.56;;;6.53;77.38
64821;BME280;51256;55.654;37.264;2022-10-23T12:38:38;98635.03;;;6.63;77.17
64821;BME280;51256;55.654;37.264;2022-10-23T12:41:13;98621.84;;;6.54;77.14
64821;BME280;51256;55.654;37.264;2022-10-23T12:43:48;98635.31;;;6.51;77.45
64821;BME280;51256;55.654;37.264;2022-10-23T12:46:31;98637.78;;;6.52;77.59
64821;BME280;51256;55.654;37.264;2022-10-23T12:48:58;98631.56;;;6.53;77.88
64821;BME280;51256;55.654;37.264;2022-10-23T12:51:32;98630.44;;;6.56;77.86
64821;BME280;51256;55.654;37.264;2022-10-23T12:53:58;98634.75;;;6.57;77.99
64821;BME280;51256;55.654;37.264;2022-10-23T12:56:24;98626.13;;;6.55;77.60
64821;BME280;51256;55.654;37.264;2022-10-23T12:58:57;98629.78;;;6.54;77.90
64821;BME280;51256;55.654;37.264;2022-10-23T13:01:32;98631.41;;;6.55;77.97
64821;BME280;51256;55.654;37.264;2022-10-23T13:04:15;98617.00;;;6.59;78.72
64821;BME280;51256;55.654;37.264;2022-10-23T13:06:42;98598.53;;;6.59;78.78
64821;BME280;51256;55.654;37.264;2022-10-23T13:09:23;98614.06;;;6.72;78.32
64821;BME280;51256;55.654;37.264;2022-10-23T13:11:51;98614.78;;;6.74;78.52
64821;BME280;51256;55.654;37.264;2022-10-23T13:14:33;98609.06;;;6.78;78.21
64821;BME280;51256;55.654;37.264;2022-10-23T13:17:01;98610.88;;;6.78;78.16
64821;BME280;51256;55.654;37.264;2022-10-23T13:19:27;98596.97;;;6.76;78.00
64821;BME280;51256;55.654;37.264;2022-10-23T13:21:52;98601.56;;;6.74;78.54
64821;BME280;51256;55.654;37.264;2022-10-23T13:24:19;98601.56;;;6.74;78.36
64821;BME280;51256;55.654;37.264;2022-10-23T13:26:46;98605.03;;;6.74;78.48
64821;BME280;51256;55.654;37.264;2022-10-23T13:29:27;98609.06;;;6.78;78.35
64821;BME280;51256;55.654;37.264;2022-10-23T13:31:54;98592.97;;;6.72;78.45
64821;BME280;51256;55.654;37.264;2022-10-23T13:34:25;98596.41;;;6.72;78.26
64821;BME280;51256;55.654;37.264;2022-10-23T13:37:02;98593.78;;;6.72;78.11
64821;BME280;51256;55.654;37.264;2022-10-23T13:39:32;98586.47;;;6.66;78.45
64821;BME280;51256;55.654;37.264;2022-10-23T13:42:04;98599.19;;;6.71;78.86
64821;BME280;51256;55.654;37.264;2022-10-23T13:44:33;98599.66;;;6.66;78.42
64821;BME280;51256;55.654;37.264;2022-10-23T13:47:01;98598.25;;;6.62;78.60
64821;BME280;51256;55.654;37.264;2022-10-23T13:49:26;98593.13;;;6.60;78.74
64821;BME280;51256;55.654;37.264;2022-10-23T13:51:54;98574.00;;;6.48;79.09
64821;BME280;51256;55.654;37.264;2022-10-23T13:54:25;98590.34;;;6.62;79.21
64821;BME280;51256;55.654;37.264;2022-10-23T13:56:51;98590.63;;;6.59;78.85
64821;BME280;51256;55.654;37.264;2022-10-23T13:59:17;98589.09;;;6.56;79.34
64821;BME280;51256;55.654;37.264;2022-10-23T14:01:44;98578.00;;;6.53;79.52
64821;BME280;51256;55.654;37.264;2022-10-23T14:04:10;98571.34;;;6.48;79.19
64821;BME280;51256;55.654;37.264;2022-10-23T14:06:37;98583.41;;;6.51;79.34
64821;BME280;51256;55.654;37.264;2022-10-23T14:09:05;98581.91;;;6.48;79.15
64821;BME280;51256;55.654;37.264;2022-10-23T14:11:31;98575.78;;;6.48;79.32
64821;BME280;51256;55.654;37.264;2022-10-23T14:13:57;98583.41;;;6.51;79.37
64821;BME280;51256;55.654;37.264;2022-10-23T14:16:24;98575.50;;;6.51;79.67
64821;BME280;51256;55.654;37.264;2022-10-23T14:18:49;98578.56;;;6.56;79.52
64821;BME280;51256;55.654;37.264;2022-10-23T14:21:17;98578.00;;;6.53;79.71
64821;BME280;51256;55.654;37.264;2022-10-23T14:23:45;98580.63;;;6.53;79.43
64821;BME280;51256;55.654;37.264;2022-10-23T14:26:15;98572.72;;;6.53;79.89
64821;BME280;51256;55.654;37.264;2022-10-23T14:28:42;98566.19;;;6.47;79.96
64821;BME280;51256;55.654;37.264;2022-10-23T14:31:10;98574.50;;;6.52;79.55
64821;BME280;51256;55.654;37.264;2022-10-23T14:33:36;98574.50;;;6.52;79.93
64821;BME280;51256;55.654;37.264;2022-10-23T14:36:02;98567.72;;;6.49;79.80
64821;BME280;51256;55.654;37.264;2022-10-23T14:38:28;98561.63;;;6.49;79.67
64821;BME280;51256;55.654;37.264;2022-10-23T14:40:53;98570.25;;;6.51;80.12
64821;BME280;51256;55.654;37.264;2022-10-23T14:43:19;98557.16;;;6.49;79.57
64821;BME280;51256;55.654;37.264;2022-10-23T14:45:45;98560.66;;;6.50;80.20
64821;BME280;51256;55.654;37.264;2022-10-23T14:48:10;98556.59;;;6.46;80.00
64821;BME280;51256;55.654;37.264;2022-10-23T14:50:42;98555.53;;;6.48;80.33
64821;BME280;51256;55.654;37.264;2022-10-23T14:53:07;98549.25;;;6.49;80.45
64821;BME280;51256;55.654;37.264;2022-10-23T14:55:33;98546.50;;;6.51;80.43
64821;BME280;51256;55.654;37.264;2022-10-23T14:57:58;98548.03;;;6.54;80.29
64821;BME280;51256;55.654;37.264;2022-10-23T15:00:24;98551.22;;;6.57;80.15
64821;BME280;51256;55.654;37.264;2022-10-23T15:02:49;98546.34;;;6.62;80.96
64821;BME280;51256;55.654;37.264;2022-10-23T15:05:15;98551.19;;;6.67;80.44
64821;BME280;51256;55.654;37.264;2022-10-23T15:07:41;98539.50;;;6.70;80.26